Time;durP1;ratioP1;P1;durP2;ratioP2;P2;SDS_P1;SDS_P2;PMS_P1;PMS_P2;Temp;Humidity;BMP_temperature;BMP_pressure;BME280_temperature;BME280_humidity;BME280_pressure;Samples;Min_cycle;Max_cycle;Signal;HPM_P1;HPM_P2
2024/03/10 00:00:20;;;;;;;;;;;8.40;99.90;;;7.63;100.00;95740.69;4948519;28;1421;-69
2024/03/10 00:02:47;;;;;;;;;;;8.40;99.90;;;7.66;100.00;95737.91;4951574;28;1276;-69
2024/03/10 00:05:14;;;;;;;;;;;8.50;99.90;;;7.63;100.00;95733.78;4944908;28;1225;-69
2024/03/10 00:07:42;;;;;;;;;;;8.50;99.90;;;7.61;100.00;95733.03;4961047;28;1293;-69
2024/03/10 00:10:10;;;;;;;;;;;8.50;99.90;;;7.59;100.00;95734.88;4933866;28;1262;-69
2024/03/10 00:12:37;;;;;;;;;;;8.50;99.90;;;7.62;100.00;95729.53;4947484;28;1934;-69
2024/03/10 00:15:04;;;;;;;;;;;8.50;99.90;;;7.60;100.00;95726.22;4956658;28;1262;-69
2024/03/10 00:17:31;;;;;;;;;;;8.50;99.90;;;7.52;100.00;95729.25;4957389;28;1330;-69
2024/03/10 00:19:58;;;;;;;;;;;8.50;99.90;;;7.46;100.00;95737.38;4944459;28;1317;-69
2024/03/10 00:22:25;;;;;;;;;;;8.50;99.90;;;7.51;100.00;95731.94;4948329;28;1440;-69
2024/03/10 00:24:52;;;;;;;;;;;8.40;99.90;;;7.57;100.00;95736.72;4943710;28;1207;-69
2024/03/10 00:27:19;;;;;;;;;;;8.40;99.90;;;7.52;100.00;95741.31;4948696;28;1067;-69
2024/03/10 00:29:46;;;;;;;;;;;8.40;99.90;;;7.56;100.00;95745.41;4952755;28;1261;-69
2024/03/10 00:32:13;;;;;;;;;;;8.40;99.90;;;7.49;100.00;95749.28;4953623;28;1395;-69
2024/03/10 00:34:40;;;;;;;;;;;8.40;99.90;;;7.53;100.00;95748.16;4942541;28;1907;-69
2024/03/10 00:37:06;;;;;;;;;;;8.40;99.90;;;7.56;100.00;95747.16;4954524;28;1453;-69
2024/03/10 00:39:34;;;;;;;;;;;8.40;99.90;;;7.53;100.00;95740.44;4963422;28;1313;-69
2024/03/10 00:42:00;;;;;;;;;;;8.40;99.90;;;7.43;100.00;95734.13;4978238;28;1369;-69
2024/03/10 00:44:30;;;;;;;;;;;8.40;99.90;;;7.46;100.00;95729.63;4951671;28;1309;-69
2024/03/10 00:46:57;;;;;;;;;;;8.40;99.90;;;7.50;100.00;95725.94;4946107;28;1317;-69
2024/03/10 00:49:24;;;;;;;;;;;8.40;99.90;;;7.53;100.00;95736.09;4955839;28;1322;-69
2024/03/10 00:51:52;;;;;;;;;;;8.40;99.90;;;7.56;100.00;95736.81;4953996;28;1363;-69
2024/03/10 00:54:18;;;;;;;;;;;8.40;99.90;;;7.59;100.00;95732.28;4949384;28;1911;-69
2024/03/10 00:56:45;;;;;;;;;;;8.40;99.90;;;7.69;100.00;95733.41;4940264;28;1549;-69
2024/03/10 00:59:12;;;;;;;;;;;8.50;99.90;;;7.65;100.00;95731.09;4948082;28;1360;-69
2024/03/10 01:01:39;;;;;;;;;;;8.50;99.90;;;7.62;100.00;95734.72;4946528;28;1559;-69
2024/03/10 01:04:06;;;;;;;;;;;8.50;99.90;;;7.64;100.00;95730.28;4954768;28;1452;-69
2024/03/10 01:06:33;;;;;;;;;;;8.50;99.90;;;7.66;100.00;95731.03;4951944;28;1110;-69
2024/03/10 01:09:00;;;;;;;;;;;8.50;99.90;;;7.63;100.00;95728.59;4940849;28;1018;-69
2024/03/10 01:11:28;;;;;;;;;;;8.50;99.90;;;7.69;100.00;95732.59;4953686;28;1746;-69
2024/03/10 01:13:54;;;;;;;;;;;8.50;99.90;;;7.71;100.00;95726.41;4940742;28;1907;-69
2024/03/10 01:16:21;;;;;;;;;;;8.50;99.90;;;7.65;100.00;95719.03;4942222;28;1167;-69
2024/03/10 01:18:51;;;;;;;;;;;8.50;99.90;;;7.66;100.00;95723.28;4944226;28;1264;-69
2024/03/10 01:21:18;;;;;;;;;;;8.60;99.90;;;7.70;100.00;95716.97;4951691;28;1531;-69
2024/03/10 01:23:46;;;;;;;;;;;8.50;99.90;;;7.69;100.00;95714.50;4941224;28;1695;-69
2024/03/10 01:26:12;;;;;;;;;;;8.60;99.90;;;7.63;100.00;95715.69;4947108;28;1117;-69
2024/03/10 01:28:39;;;;;;;;;;;8.50;99.90;;;7.62;100.00;95713.19;4942794;28;1249;-69
2024/03/10 01:31:09;;;;;;;;;;;8.60;99.90;;;7.69;100.00;95701.59;4948463;28;1987;-69
2024/03/10 01:33:36;;;;;;;;;;;8.50;99.90;;;7.65;100.00;95697.53;4943283;28;1970;-69
2024/03/10 01:36:04;;;;;;;;;;;8.40;99.90;;;7.59;100.00;95698.72;4940505;28;1282;-69
2024/03/10 01:38:31;;;;;;;;;;;8.50;99.90;;;7.49;100.00;95688.13;4951703;28;1280;-69
2024/03/10 01:40:58;;;;;;;;;;;8.40;99.90;;;7.48;100.00;95689.06;4948776;28;1367;-69
2024/03/10 01:43:25;;;;;;;;;;;8.40;99.90;;;7.54;100.00;95686.09;4942829;28;1288;-69
2024/03/10 01:45:54;;;;;;;;;;;8.40;99.90;;;7.49;100.00;95676.97;4951990;28;1938;-70
2024/03/10 01:48:21;;;;;;;;;;;8.40;99.90;;;7.53;100.00;95676.72;4941983;28;1131;-69
2024/03/10 01:50:48;;;;;;;;;;;8.30;99.90;;;7.54;100.00;95683.50;4948491;28;1387;-69
2024/03/10 01:53:15;;;;;;;;;;;8.30;99.90;;;7.54;100.00;95673.19;4947489;28;1922;-69
2024/03/10 01:55:42;;;;;;;;;;;8.40;99.90;;;7.48;100.00;95668.41;4945976;28;2047;-69
2024/03/10 01:58:09;;;;;;;;;;;8.40;99.90;;;7.49;100.00;95667.47;4973045;28;1077;-69
2024/03/10 02:00:38;;;;;;;;;;;8.30;99.90;;;7.50;100.00;95661.41;4963836;28;1936;-69
2024/03/10 02:03:06;;;;;;;;;;;8.40;99.90;;;7.43;100.00;95654.13;4948203;28;1351;-69
2024/03/10 02:05:33;;;;;;;;;;;8.40;99.90;;;7.35;100.00;95644.28;4941169;28;1154;-69
2024/03/10 02:07:59;;;;;;;;;;;8.40;99.90;;;7.42;100.00;95648.13;4963961;28;1102;-69
2024/03/10 02:10:26;;;;;;;;;;;8.30;99.90;;;7.45;100.00;95639.38;4946790;28;1312;-69
2024/03/10 02:12:53;;;;;;;;;;;8.30;99.90;;;7.58;100.00;95631.72;4954275;28;1305;-70
2024/03/10 02:15:23;;;;;;;;;;;8.40;99.90;;;7.57;100.00;95630.84;4945320;28;1899;-69
2024/03/10 02:17:50;;;;;;;;;;;8.40;99.90;;;7.53;100.00;95630.22;4942766;28;1260;-69
2024/03/10 02:20:20;;;;;;;;;;;8.40;99.90;;;7.48;100.00;95614.22;4949895;28;1374;-68
2024/03/10 02:22:49;;;;;;;;;;;8.40;99.90;;;7.36;100.00;95612.34;4941783;28;1268;-69
2024/03/10 02:25:17;;;;;;;;;;;8.40;99.90;;;7.26;100.00;95612.09;4943740;28;1423;-69
2024/03/10 02:27:44;;;;;;;;;;;8.30;99.90;;;7.24;100.00;95611.38;4945546;28;1055;-69
2024/03/10 02:30:19;;;;;;;;;;;8.20;99.90;;;7.24;100.00;95605.38;4946929;28;1146;-69
2024/03/10 02:49:36;;;;;;;;;;;8.20;99.90;;;7.56;100.00;95551.75;4944217;28;1107;-69
2024/03/10 02:52:03;;;;;;;;;;;8.30;99.90;;;7.47;100.00;95526.53;4949224;28;1398;-69
2024/03/10 02:54:30;;;;;;;;;;;8.40;99.90;;;7.39;100.00;95527.03;4938217;28;1907;-69
2024/03/10 02:56:57;;;;;;;;;;;8.40;99.90;;;7.41;100.00;95538.06;4940867;28;1209;-69
2024/03/10 02:59:24;;;;;;;;;;;8.40;99.90;;;7.42;100.00;95539.72;4944118;28;1121;-69
2024/03/10 03:01:51;;;;;;;;;;;8.30;99.90;;;7.38;100.00;95540.00;4948378;28;1871;-69
2024/03/10 03:04:19;;;;;;;;;;;8.20;99.90;;;7.36;100.00;95532.34;4945496;28;1264;-68
2024/03/10 03:06:46;;;;;;;;;;;8.30;99.90;;;7.38;100.00;95534.84;4944933;28;1242;-69
2024/03/10 03:09:13;;;;;;;;;;;8.30;99.90;;;7.41;100.00;95547.56;4957057;28;1213;-69
2024/03/10 03:11:40;;;;;;;;;;;8.30;99.90;;;7.40;100.00;95536.41;4948252;28;1313;-69
2024/03/10 03:14:08;;;;;;;;;;;8.30;99.90;;;7.36;100.00;95529.78;4942548;28;1927;-69
2024/03/10 03:16:35;;;;;;;;;;;8.30;99.90;;;7.27;100.00;95523.44;4945677;28;1488;-69
2024/03/10 03:19:03;;;;;;;;;;;8.20;99.90;;;7.27;100.00;95528.59;4940606;28;1165;-69
2024/03/10 03:21:31;;;;;;;;;;;8.20;99.90;;;7.28;100.00;95526.84;4938327;28;1386;-69
2024/03/10 03:24:00;;;;;;;;;;;8.20;99.90;;;7.36;100.00;95539.28;4938193;28;1245;-69
2024/03/10 03:26:27;;;;;;;;;;;8.20;99.90;;;7.27;100.00;95526.00;4951138;28;1153;-69
2024/03/10 03:28:54;;;;;;;;;;;8.20;99.90;;;7.20;100.00;95503.28;4937623;28;1277;-69
2024/03/10 03:31:20;;;;;;;;;;;8.20;99.90;;;7.20;100.00;95511.84;4948552;28;1301;-69
2024/03/10 03:33:47;;;;;;;;;;;8.10;99.90;;;7.23;100.00;95510.81;4942919;28;1899;-69
2024/03/10 03:36:14;;;;;;;;;;;8.10;99.90;;;7.25;100.00;95514.97;4939609;28;1292;-69
2024/03/10 03:38:44;;;;;;;;;;;8.20;99.90;;;7.31;100.00;95495.69;4935110;28;1253;-69
2024/03/10 03:41:11;;;;;;;;;;;8.20;99.90;;;7.23;100.00;95470.38;4943967;28;1324;-69
2024/03/10 03:43:38;;;;;;;;;;;8.20;99.90;;;7.26;100.00;95446.94;4944458;28;1060;-69
2024/03/10 03:46:04;;;;;;;;;;;8.20;99.90;;;7.21;100.00;95435.28;4941685;28;1182;-69
2024/03/10 03:48:31;;;;;;;;;;;8.20;99.90;;;7.18;100.00;95412.22;4946147;28;1095;-69
2024/03/10 03:50:59;;;;;;;;;;;8.20;99.90;;;7.14;100.00;95398.72;4945133;28;1348;-69
2024/03/10 03:53:26;;;;;;;;;;;8.10;99.90;;;7.11;100.00;95397.13;4949732;28;1122;-69
2024/03/10 03:55:53;;;;;;;;;;;8.10;99.90;;;7.10;100.00;95377.44;4940253;28;1907;-69
2024/03/10 03:58:21;;;;;;;;;;;8.00;99.90;;;7.09;100.00;95355.16;4951611;28;1145;-69
2024/03/10 04:00:48;;;;;;;;;;;8.00;99.90;;;7.08;100.00;95368.16;4944946;28;1367;-69
2024/03/10 04:03:14;;;;;;;;;;;8.00;99.90;;;7.13;100.00;95374.66;4948798;28;1031;-69
2024/03/10 04:05:41;;;;;;;;;;;8.00;99.90;;;7.09;100.00;95368.06;4946144;28;1260;-69
2024/03/10 04:08:11;;;;;;;;;;;8.00;99.90;;;7.15;100.00;95394.38;4942994;28;1057;-69
2024/03/10 04:10:38;;;;;;;;;;;8.00;99.90;;;7.26;100.00;95413.41;4952079;28;1320;-69
2024/03/10 04:13:07;;;;;;;;;;;8.10;99.90;;;7.26;100.00;95422.91;4946610;28;1142;-69
2024/03/10 04:15:37;;;;;;;;;;;8.00;99.90;;;7.36;100.00;95421.38;4947163;28;1911;-69
2024/03/10 04:18:05;;;;;;;;;;;8.10;99.90;;;7.33;100.00;95404.34;4942596;28;1236;-69
2024/03/10 04:20:33;;;;;;;;;;;8.10;99.90;;;7.39;100.00;95389.38;4979860;28;1367;-69
2024/03/10 04:23:02;;;;;;;;;;;8.30;99.90;;;7.28;100.00;95372.84;4951339;28;1603;-69
2024/03/10 04:25:29;;;;;;;;;;;8.20;99.90;;;7.22;100.00;95375.81;4953234;28;1079;-69
2024/03/10 04:27:56;;;;;;;;;;;8.20;99.90;;;7.27;100.00;95386.66;4943719;28;1442;-69
2024/03/10 04:30:23;;;;;;;;;;;8.20;99.90;;;7.29;100.00;95387.41;4944516;28;1421;-69
2024/03/10 04:32:50;;;;;;;;;;;8.20;99.90;;;7.25;100.00;95398.00;4946568;28;1284;-69
2024/03/10 04:35:19;;;;;;;;;;;8.10;99.90;;;7.31;100.00;95408.78;4943997;28;1911;-69
2024/03/10 04:37:46;;;;;;;;;;;8.10;99.90;;;7.17;100.00;95413.19;4937055;28;1225;-69
2024/03/10 04:40:16;;;;;;;;;;;8.20;99.90;;;7.25;100.00;95423.81;4979004;28;1078;-69
2024/03/10 04:42:43;;;;;;;;;;;8.10;99.90;;;7.17;100.00;95429.47;4941088;28;1209;-69
2024/03/10 04:45:13;;;;;;;;;;;8.10;99.90;;;7.32;100.00;95445.72;4942233;28;1224;-69
2024/03/10 04:47:39;;;;;;;;;;;8.20;99.90;;;7.43;100.00;95443.28;4945986;28;1384;-69
2024/03/10 04:50:08;;;;;;;;;;;8.20;99.90;;;7.28;100.00;95449.44;4951838;28;1063;-69
2024/03/10 04:52:37;;;;;;;;;;;8.20;99.90;;;7.37;100.00;95459.19;4948549;28;1351;-69
2024/03/10 04:55:08;;;;;;;;;;;8.20;99.90;;;7.41;100.00;95454.63;4946863;28;1906;-69
2024/03/10 04:57:35;;;;;;;;;;;8.20;99.90;;;7.29;100.00;95451.91;4942885;28;1265;-69
2024/03/10 05:00:03;;;;;;;;;;;8.20;99.90;;;7.17;100.00;95454.44;4967417;28;1319;-69
2024/03/10 05:02:30;;;;;;;;;;;8.10;99.90;;;7.20;100.00;95473.13;4947708;28;1383;-69
2024/03/10 05:04:57;;;;;;;;;;;8.10;99.90;;;7.25;100.00;95478.84;4944027;28;1023;-69
2024/03/10 05:07:24;;;;;;;;;;;8.20;99.90;;;7.22;100.00;95481.59;4972481;28;1507;-69
2024/03/10 05:09:50;;;;;;;;;;;8.20;99.90;;;7.12;100.00;95476.22;4950834;28;1090;-69
2024/03/10 05:12:18;;;;;;;;;;;8.10;99.90;;;7.01;100.00;95478.63;4949220;28;1300;-69
2024/03/10 05:14:45;;;;;;;;;;;8.10;99.90;;;6.95;100.00;95470.44;4944278;28;1899;-69
2024/03/10 05:17:12;;;;;;;;;;;8.00;99.90;;;6.92;100.00;95476.63;4935069;28;1134;-69
2024/03/10 05:19:41;;;;;;;;;;;8.00;99.90;;;6.88;100.00;95472.56;4940840;28;1193;-69
2024/03/10 05:22:09;;;;;;;;;;;7.90;99.90;;;6.89;100.00;95463.91;4947145;28;1423;-69
2024/03/10 05:24:43;;;;;;;;;;;7.80;99.90;;;6.87;100.00;95463.19;4940914;28;1104;-69
2024/03/10 05:27:10;;;;;;;;;;;7.80;99.90;;;6.77;100.00;95455.16;4946545;28;1423;-69
2024/03/10 05:29:37;;;;;;;;;;;7.80;99.90;;;6.73;100.00;95442.56;4943333;28;1175;-69
2024/03/10 05:32:04;;;;;;;;;;;7.70;99.90;;;6.68;100.00;95443.69;4942097;28;1341;-69
2024/03/10 05:34:40;;;;;;;;;;;7.70;99.90;;;6.64;100.00;95446.53;4940465;28;2068;-69
2024/03/10 05:37:07;;;;;;;;;;;7.60;99.90;;;6.74;100.00;95467.44;4938384;28;1428;-69
2024/03/10 05:39:34;;;;;;;;;;;7.60;99.90;;;6.90;100.00;95479.28;4939457;28;1393;-69
2024/03/10 05:42:05;;;;;;;;;;;7.60;99.90;;;6.91;100.00;95490.41;4940768;28;1264;-69
2024/03/10 05:44:33;;;;;;;;;;;7.70;99.90;;;6.88;100.00;95494.00;4944963;28;1139;-69
2024/03/10 05:47:00;;;;;;;;;;;7.80;99.90;;;6.85;100.00;95501.94;4942951;28;1131;-69
2024/03/10 05:49:28;;;;;;;;;;;7.80;99.90;;;6.68;100.00;95500.41;4943390;28;1118;-69
2024/03/10 05:51:55;;;;;;;;;;;7.80;99.90;;;6.68;100.00;95515.88;4942658;28;1363;-69
2024/03/10 05:54:22;;;;;;;;;;;7.70;99.90;;;6.66;100.00;95520.28;4941617;28;1911;-69
2024/03/10 05:56:49;;;;;;;;;;;7.60;99.90;;;6.59;100.00;95519.00;4940804;28;1105;-69
2024/03/10 05:59:16;;;;;;;;;;;7.60;99.90;;;6.53;100.00;95534.81;4949223;28;1334;-69
2024/03/10 06:01:45;;;;;;;;;;;7.50;99.90;;;6.63;100.00;95543.66;4941055;28;1348;-69
2024/03/10 06:04:12;;;;;;;;;;;7.50;99.90;;;6.71;100.00;95548.38;4947755;28;1106;-69
2024/03/10 06:06:39;;;;;;;;;;;7.60;99.90;;;6.78;100.00;95552.25;4940332;28;1304;-69
2024/03/10 06:09:07;;;;;;;;;;;7.60;99.90;;;6.88;100.00;95555.91;4938511;28;1300;-69
2024/03/10 06:11:34;;;;;;;;;;;7.60;99.90;;;6.88;100.00;95552.50;4940160;28;1293;-69
2024/03/10 06:14:00;;;;;;;;;;;7.70;99.90;;;6.70;100.00;95541.53;4944738;28;1102;-69
2024/03/10 06:16:29;;;;;;;;;;;7.70;99.90;;;6.41;100.00;95545.84;4948227;28;1964;-69
2024/03/10 06:27:00;;;;;;;;;;;7.40;99.90;;;6.36;100.00;95538.38;4938031;28;1094;-69
2024/03/10 06:29:27;;;;;;;;;;;7.30;99.90;;;6.32;100.00;95548.94;4941244;28;1241;-69
2024/03/10 06:31:58;;;;;;;;;;;7.30;99.90;;;6.35;100.00;95541.88;4940682;28;1379;-69
2024/03/10 06:34:25;;;;;;;;;;;7.30;99.90;;;6.39;100.00;95555.44;4947384;28;2014;-69
2024/03/10 06:36:52;;;;;;;;;;;7.30;99.90;;;6.43;100.00;95550.00;4942108;28;1331;-69
2024/03/10 06:39:19;;;;;;;;;;;7.30;99.90;;;6.42;100.00;95548.34;4939090;28;1289;-69
2024/03/10 06:41:47;;;;;;;;;;;7.30;99.90;;;6.40;100.00;95549.34;4940984;28;1367;-69
2024/03/10 06:44:15;;;;;;;;;;;7.40;99.90;;;6.41;100.00;95563.88;4930327;28;1289;-70
2024/03/10 06:46:42;;;;;;;;;;;7.40;99.90;;;6.39;100.00;95563.16;4942324;28;1221;-69
2024/03/10 06:49:09;;;;;;;;;;;7.30;99.90;;;6.41;100.00;95558.72;4939045;28;1249;-69
2024/03/10 06:51:36;;;;;;;;;;;7.40;99.90;;;6.42;100.00;95557.81;4940385;28;1229;-69
2024/03/10 06:54:03;;;;;;;;;;;7.40;99.90;;;6.41;100.00;95553.56;4939299;28;1392;-69
2024/03/10 06:56:30;;;;;;;;;;;7.30;99.90;;;6.34;100.00;95553.13;4943944;28;1911;-69
2024/03/10 06:58:57;;;;;;;;;;;7.30;99.90;;;6.34;100.00;95547.97;4941341;28;1315;-69
2024/03/10 07:01:25;;;;;;;;;;;7.30;99.90;;;6.32;100.00;95520.59;4950746;28;1355;-69
2024/03/10 07:03:52;;;;;;;;;;;7.20;99.90;;;6.27;100.00;95510.56;4948982;28;1102;-69
2024/03/10 07:06:21;;;;;;;;;;;7.30;99.90;;;6.26;100.00;95514.09;4943199;28;1391;-69
2024/03/10 07:08:49;;;;;;;;;;;7.30;99.90;;;6.27;100.00;95519.16;4941936;28;1376;-69
2024/03/10 07:11:16;;;;;;;;;;;7.20;99.90;;;6.24;100.00;95537.34;4944405;28;1450;-69
2024/03/10 07:13:43;;;;;;;;;;;7.30;99.90;;;6.22;100.00;95549.47;4939426;28;1496;-69
2024/03/10 07:16:10;;;;;;;;;;;7.20;99.90;;;6.31;100.00;95552.47;4944104;28;1915;-69
2024/03/10 07:18:37;;;;;;;;;;;7.20;99.90;;;6.26;100.00;95556.13;4942119;28;1151;-69
2024/03/10 07:21:05;;;;;;;;;;;7.20;99.90;;;6.30;100.00;95553.38;4933892;28;1348;-69
2024/03/10 07:23:32;;;;;;;;;;;7.20;99.90;;;6.41;100.00;95545.84;4948954;28;1072;-69
2024/03/10 07:26:00;;;;;;;;;;;7.30;99.90;;;6.42;100.00;95547.50;4940242;28;1267;-69
2024/03/10 07:28:27;;;;;;;;;;;7.30;99.90;;;6.47;100.00;95540.31;4942566;28;1034;-69
2024/03/10 07:30:54;;;;;;;;;;;7.40;99.90;;;6.48;100.00;95539.44;4944642;28;1390;-69
2024/03/10 07:33:21;;;;;;;;;;;7.40;99.90;;;6.47;100.00;95523.13;4941040;28;1200;-69
2024/03/10 07:35:48;;;;;;;;;;;7.40;99.90;;;6.51;100.00;95522.94;4947354;28;1907;-69
2024/03/10 07:38:15;;;;;;;;;;;7.40;99.90;;;6.74;100.00;95524.16;4946920;28;1129;-69
2024/03/10 07:40:42;;;;;;;;;;;7.50;99.90;;;6.93;100.00;95511.78;4939710;28;1375;-69
2024/03/10 07:43:09;;;;;;;;;;;7.60;99.90;;;7.04;100.00;95509.38;4941095;28;1173;-69
2024/03/10 07:45:36;;;;;;;;;;;7.80;99.90;;;7.13;100.00;95518.31;4939745;28;1145;-69
2024/03/10 07:48:05;;;;;;;;;;;8.00;99.90;;;7.18;100.00;95512.84;4935333;28;1150;-69
2024/03/10 07:50:35;;;;;;;;;;;8.00;99.90;;;7.38;100.00;95514.19;4944315;28;1272;-69
2024/03/10 07:53:02;;;;;;;;;;;8.00;99.90;;;7.42;100.00;95510.50;4939078;28;1122;-69
2024/03/10 07:55:32;;;;;;;;;;;8.20;99.90;;;7.48;100.00;95510.94;4937806;28;1903;-69
2024/03/10 07:57:59;;;;;;;;;;;8.30;99.90;;;7.47;100.00;95503.28;4939719;28;1133;-69
2024/03/10 08:00:26;;;;;;;;;;;8.30;99.90;;;7.39;100.00;95511.53;4949212;28;1312;-69
2024/03/10 08:02:53;;;;;;;;;;;8.30;99.90;;;7.32;100.00;95525.72;4940409;28;1005;-69
2024/03/10 08:05:21;;;;;;;;;;;8.40;99.90;;;7.40;100.00;95528.66;4946438;28;1206;-69
2024/03/10 08:07:49;;;;;;;;;;;8.40;99.90;;;7.47;100.00;95521.38;4938778;28;1188;-70
2024/03/10 08:10:17;;;;;;;;;;;8.40;99.90;;;7.35;100.00;95528.13;4944532;28;1399;-69
2024/03/10 08:12:45;;;;;;;;;;;8.30;99.90;;;7.33;100.00;95525.63;4955510;28;1204;-69
2024/03/10 08:15:13;;;;;;;;;;;8.30;99.90;;;7.46;100.00;95523.13;4940434;28;1911;-69
2024/03/10 08:17:41;;;;;;;;;;;8.40;99.90;;;7.54;100.00;95528.63;4939894;28;1132;-69
2024/03/10 08:20:13;;;;;;;;;;;8.40;99.90;;;7.59;100.00;95530.91;4971482;28;1145;-69
2024/03/10 08:22:42;;;;;;;;;;;8.40;99.90;;;7.79;100.00;95523.66;4939641;28;1320;-69
2024/03/10 08:25:09;;;;;;;;;;;8.40;99.90;;;7.64;100.00;95522.88;4952681;28;1241;-69
2024/03/10 08:27:36;;;;;;;;;;;8.50;99.90;;;7.84;100.00;95508.69;4968811;28;1110;-69
2024/03/10 08:30:04;;;;;;;;;;;8.60;99.90;;;7.89;100.00;95510.06;4944859;28;1167;-69
2024/03/10 08:32:31;;;;;;;;;;;8.60;99.90;;;7.56;100.00;95507.06;4949132;28;1404;-69
2024/03/10 08:34:58;;;;;;;;;;;8.60;99.90;;;7.63;100.00;95508.31;4945148;28;1976;-69
2024/03/10 08:37:27;;;;;;;;;;;8.60;99.90;;;7.63;100.00;95511.72;4945305;28;1284;-69
2024/03/10 08:39:55;;;;;;;;;;;8.50;99.90;;;7.66;100.00;95505.53;4943214;28;1080;-69
2024/03/10 08:42:24;;;;;;;;;;;8.60;99.90;;;7.78;100.00;95497.00;4942323;28;1308;-69
2024/03/10 08:44:51;;;;;;;;;;;8.60;99.90;;;7.80;100.00;95489.13;4940249;28;1259;-69
2024/03/10 08:47:18;;;;;;;;;;;8.60;99.90;;;8.01;100.00;95489.50;4955108;28;1571;-69
2024/03/10 08:49:45;;;;;;;;;;;8.70;99.90;;;8.11;100.00;95480.22;4939387;28;1280;-69
2024/03/10 08:52:12;;;;;;;;;;;8.80;99.90;;;8.03;100.00;95480.72;4947208;28;1308;-69
2024/03/10 08:54:39;;;;;;;;;;;8.90;99.90;;;8.20;100.00;95478.78;4940177;28;1450;-69
2024/03/10 08:57:06;;;;;;;;;;;9.00;99.90;;;8.31;100.00;95474.53;4947766;28;1907;-69
2024/03/10 08:59:33;;;;;;;;;;;9.10;99.90;;;8.44;100.00;95474.59;4950998;28;1201;-69
2024/03/10 09:02:01;;;;;;;;;;;9.30;99.90;;;8.49;100.00;95469.09;4939520;28;1740;-69
2024/03/10 09:04:29;;;;;;;;;;;9.30;99.90;;;8.41;100.00;95472.19;4930568;28;1161;-69
2024/03/10 09:06:56;;;;;;;;;;;9.30;99.90;;;8.40;100.00;95456.78;4941211;28;1492;-69
2024/03/10 09:09:22;;;;;;;;;;;9.40;99.90;;;8.46;100.00;95452.03;4942523;28;1111;-69
2024/03/10 09:11:49;;;;;;;;;;;9.50;99.90;;;8.66;100.00;95463.59;4940083;28;1430;-69
2024/03/10 09:14:18;;;;;;;;;;;9.40;99.90;;;8.64;100.00;95452.50;4959156;28;1110;-69
2024/03/10 09:16:45;;;;;;;;;;;9.40;99.90;;;9.15;100.00;95444.66;4950384;28;1903;-69
2024/03/10 09:19:14;;;;;;;;;;;9.60;99.90;;;9.04;100.00;95443.75;4941716;28;1098;-69
2024/03/10 09:21:43;;;;;;;;;;;9.80;99.90;;;9.04;100.00;95454.09;4939879;28;1364;-69
2024/03/10 09:24:11;;;;;;;;;;;9.80;99.90;;;9.07;100.00;95456.47;4943900;28;1140;-69
2024/03/10 09:26:39;;;;;;;;;;;9.80;99.90;;;8.97;100.00;95461.47;4946322;28;1098;-69
2024/03/10 09:29:06;;;;;;;;;;;9.80;99.90;;;8.87;100.00;95453.53;4939026;28;1192;-69
2024/03/10 09:31:34;;;;;;;;;;;9.70;99.90;;;8.90;100.00;95455.91;4944488;28;1280;-69
2024/03/10 09:34:03;;;;;;;;;;;9.70;99.90;;;8.89;100.00;95458.56;4948853;28;1367;-69
2024/03/10 09:36:30;;;;;;;;;;;9.70;99.90;;;8.76;100.00;95459.44;4948501;28;1926;-69
2024/03/10 09:38:59;;;;;;;;;;;9.70;99.90;;;8.74;100.00;95457.91;4940953;28;1276;-69
2024/03/10 09:41:28;;;;;;;;;;;9.60;99.90;;;8.81;100.00;95453.13;4944268;28;1291;-69
2024/03/10 09:43:57;;;;;;;;;;;9.60;99.90;;;8.58;100.00;95465.88;4943714;28;1113;-69
2024/03/10 09:46:24;;;;;;;;;;;9.60;99.90;;;8.78;100.00;95469.66;4948554;28;1176;-69
2024/03/10 09:48:51;;;;;;;;;;;9.60;99.90;;;8.77;100.00;95474.00;4941792;28;1095;-69
2024/03/10 09:51:19;;;;;;;;;;;9.50;99.90;;;8.69;100.00;95476.31;4944276;28;2117;-69
2024/03/10 09:53:47;;;;;;;;;;;9.60;99.90;;;8.59;100.00;95473.50;4944275;28;1116;-69
2024/03/10 09:56:14;;;;;;;;;;;9.50;99.90;;;8.71;100.00;95476.19;4945925;28;1910;-69
2024/03/10 09:58:53;;;;;;;;;;;9.60;99.90;;;8.63;100.00;95476.72;4941705;28;1106;-69
2024/03/10 10:01:21;;;;;;;;;;;9.50;99.90;;;8.88;100.00;95482.81;4942657;28;1380;-69
2024/03/10 10:03:49;;;;;;;;;;;9.60;99.90;;;8.70;100.00;95472.78;4940023;28;1046;-69
2024/03/10 10:06:20;;;;;;;;;;;9.60;99.90;;;8.89;100.00;95469.75;4945166;28;1103;-69
2024/03/10 10:08:58;;;;;;;;;;;9.70;99.90;;;8.94;100.00;95472.00;4939273;28;1084;-69
2024/03/10 10:11:26;;;;;;;;;;;9.70;99.90;;;9.06;100.00;95466.00;4945431;28;1375;-69
2024/03/10 10:14:16;;;;;;;;;;;9.80;99.90;;;9.05;100.00;95459.16;4941732;28;1056;-68
2024/03/10 10:16:58;;;;;;;;;;;9.90;99.90;;;9.17;100.00;95455.72;4938227;28;2015;-69
2024/03/10 10:19:27;;;;;;;;;;;10.00;99.90;;;9.27;100.00;95450.69;4949980;28;1138;-69
2024/03/10 10:21:54;;;;;;;;;;;10.00;99.90;;;9.51;100.00;95450.72;4941408;28;1265;-69
2024/03/10 10:24:21;;;;;;;;;;;10.10;99.90;;;9.76;100.00;95446.31;4946425;28;1017;-69
2024/03/10 10:26:58;;;;;;;;;;;10.20;99.90;;;9.50;100.00;95440.47;4942927;28;1089;-69
2024/03/10 10:29:25;;;;;;;;;;;10.40;99.90;;;9.25;100.00;95444.81;4943614;28;1104;-69
2024/03/10 10:31:59;;;;;;;;;;;10.30;99.90;;;9.27;100.00;95448.13;4958995;28;1291;-69
2024/03/10 10:34:28;;;;;;;;;;;10.20;99.90;;;9.14;100.00;95447.34;4946800;28;1123;-69
2024/03/10 10:36:55;;;;;;;;;;;10.20;99.90;;;9.45;100.00;95434.78;4940989;28;1985;-69
2024/03/10 10:39:26;;;;;;;;;;;10.20;99.90;;;9.74;100.00;95427.47;4942614;28;1079;-69
2024/03/10 10:41:55;;;;;;;;;;;10.30;99.90;;;9.74;100.00;95430.91;4944449;28;1244;-69
2024/03/10 10:44:27;;;;;;;;;;;10.40;99.90;;;9.57;100.00;95432.13;4946976;28;1078;-69
2024/03/10 10:46:54;;;;;;;;;;;10.40;99.90;;;9.89;100.00;95430.72;4947772;28;1177;-68
2024/03/10 10:49:21;;;;;;;;;;;10.50;99.90;;;10.32;100.00;95419.75;4942971;28;1035;-69
2024/03/10 10:51:52;;;;;;;;;;;10.60;99.90;;;10.23;100.00;95421.22;4937774;28;1300;-69
2024/03/10 10:54:19;;;;;;;;;;;10.80;99.90;;;10.49;100.00;95424.47;4945288;28;1009;-69
2024/03/10 10:56:54;;;;;;;;;;;11.00;99.90;;;10.10;100.00;95433.47;4977640;28;1981;-69
2024/03/10 10:59:24;;;;;;;;;;;11.00;99.90;;;10.44;100.00;95421.38;4974139;28;1598;-69
2024/03/10 11:02:13;;;;;;;;;;;11.00;99.90;;;10.17;100.00;95419.09;4940020;28;1407;-69
2024/03/10 11:04:42;;;;;;;;;;;11.00;99.90;;;10.68;100.00;95410.91;4943528;28;1085;-69
2024/03/10 11:07:13;;;;;;;;;;;11.10;99.90;;;10.54;100.00;95387.81;4940834;28;1002;-69
2024/03/10 11:09:40;;;;;;;;;;;11.10;99.90;;;10.33;100.00;95393.69;4943482;28;1368;-69
2024/03/10 11:12:16;;;;;;;;;;;11.10;99.90;;;10.53;100.00;95392.16;4938572;28;1370;-69
2024/03/10 11:14:45;;;;;;;;;;;11.10;99.90;;;10.33;100.00;95398.88;4939689;28;1563;-69
2024/03/10 11:17:12;;;;;;;;;;;11.20;99.90;;;10.19;100.00;95422.41;4939183;28;2041;-69
2024/03/10 11:19:40;;;;;;;;;;;11.20;99.90;;;10.53;100.00;95430.25;4947292;28;1805;-69
2024/03/10 11:22:08;;;;;;;;;;;11.20;99.90;;;10.84;100.00;95439.91;4959341;28;1436;-68
2024/03/10 11:24:35;;;;;;;;;;;11.20;99.90;;;10.79;100.00;95454.19;4943606;28;1177;-69
2024/03/10 11:27:20;;;;;;;;;;;11.30;99.90;;;10.93;100.00;95481.66;4935546;28;1451;-69
2024/03/10 11:29:48;;;;;;;;;;;11.20;99.90;;;10.67;100.00;95474.94;4932116;28;1139;-70
2024/03/10 11:32:31;;;;;;;;;;;11.00;99.90;;;10.82;100.00;95469.50;4943049;28;1442;-69
2024/03/10 11:35:09;;;;;;;;;;;11.20;99.90;;;11.14;100.00;95455.81;4945324;28;1189;-69
2024/03/10 11:37:37;;;;;;;;;;;11.40;99.90;;;10.90;100.00;95459.34;4942953;28;1980;-69
2024/03/10 11:40:05;;;;;;;;;;;11.30;99.90;;;10.85;100.00;95464.91;4945273;28;1335;-69
2024/03/10 11:42:32;;;;;;;;;;;11.20;99.90;;;10.91;100.00;95471.41;4946722;28;1401;-69
2024/03/10 11:45:03;;;;;;;;;;;11.40;99.90;;;10.87;100.00;95477.75;4946833;28;1513;-69
2024/03/10 11:47:32;;;;;;;;;;;11.40;99.90;;;11.02;100.00;95471.38;4955765;28;1997;-69
2024/03/10 11:50:04;;;;;;;;;;;11.50;99.90;;;11.48;100.00;95459.13;4945424;28;1390;-69
2024/03/10 11:52:31;;;;;;;;;;;11.60;99.90;;;11.58;100.00;95460.03;4946883;28;1624;-69
2024/03/10 11:54:58;;;;;;;;;;;11.80;99.90;;;11.82;100.00;95440.81;4941588;28;1580;-69
2024/03/10 11:57:25;;;;;;;;;;;12.00;99.90;;;11.78;100.00;95450.63;4933620;28;1928;-69
2024/03/10 11:59:55;;;;;;;;;;;12.10;99.90;;;11.89;100.00;95436.81;4933453;28;1457;-69